sensor_id;sensor_type;location;lat;lon;timestamp;P1;durP1;ratioP1;P2;durP2;ratioP2
50689;SDS011;71367;48.298;11.238;2024-03-23T01:04:52;6.65;;;4.00;;
50689;SDS011;71367;48.298;11.238;2024-03-23T01:19:55;6.30;;;3.85;;
50689;SDS011;71367;48.298;11.238;2024-03-23T01:34:58;6.22;;;4.03;;
50689;SDS011;71367;48.298;11.238;2024-03-23T01:50:02;6.53;;;4.00;;
50689;SDS011;71367;48.298;11.238;2024-03-23T02:05:06;5.95;;;3.90;;
50689;SDS011;71367;48.298;11.238;2024-03-23T02:20:11;7.70;;;4.22;;
50689;SDS011;71367;48.298;11.238;2024-03-23T02:35:14;6.65;;;4.05;;
50689;SDS011;71367;48.298;11.238;2024-03-23T02:50:18;6.20;;;3.60;;
50689;SDS011;71367;48.298;11.238;2024-03-23T03:05:21;7.43;;;3.72;;
50689;SDS011;71367;48.298;11.238;2024-03-23T03:20:24;6.30;;;4.03;;
50689;SDS011;71367;48.298;11.238;2024-03-23T03:35:27;6.30;;;3.80;;
50689;SDS011;71367;48.298;11.238;2024-03-23T03:50:31;8.27;;;3.70;;
50689;SDS011;71367;48.298;11.238;2024-03-23T04:05:34;6.05;;;3.47;;
50689;SDS011;71367;48.298;11.238;2024-03-23T04:20:37;9.73;;;3.38;;
50689;SDS011;71367;48.298;11.238;2024-03-23T04:35:41;5.22;;;3.17;;
50689;SDS011;71367;48.298;11.238;2024-03-23T04:50:44;4.85;;;2.90;;
50689;SDS011;71367;48.298;11.238;2024-03-23T05:05:49;8.02;;;2.90;;
50689;SDS011;71367;48.298;11.238;2024-03-23T05:20:56;7.15;;;2.83;;
50689;SDS011;71367;48.298;11.238;2024-03-23T05:36:00;5.80;;;2.80;;
50689;SDS011;71367;48.298;11.238;2024-03-23T05:51:05;4.70;;;2.55;;
50689;SDS011;71367;48.298;11.238;2024-03-23T06:06:08;5.50;;;2.13;;
50689;SDS011;71367;48.298;11.238;2024-03-23T06:21:14;3.67;;;2.35;;
50689;SDS011;71367;48.298;11.238;2024-03-23T06:36:17;6.32;;;2.55;;
50689;SDS011;71367;48.298;11.238;2024-03-23T06:51:21;3.95;;;2.22;;
50689;SDS011;71367;48.298;11.238;2024-03-23T07:06:24;4.47;;;2.50;;
50689;SDS011;71367;48.298;11.238;2024-03-23T07:21:27;7.13;;;2.72;;
50689;SDS011;71367;48.298;11.238;2024-03-23T07:36:30;7.60;;;3.65;;
50689;SDS011;71367;48.298;11.238;2024-03-23T07:51:34;8.13;;;3.50;;
50689;SDS011;71367;48.298;11.238;2024-03-23T08:06:37;6.85;;;3.90;;
50689;SDS011;71367;48.298;11.238;2024-03-23T08:21:40;6.38;;;3.88;;
50689;SDS011;71367;48.298;11.238;2024-03-23T08:36:44;6.70;;;3.63;;
50689;SDS011;71367;48.298;11.238;2024-03-23T08:51:47;5.45;;;3.10;;
50689;SDS011;71367;48.298;11.238;2024-03-23T09:06:50;5.60;;;3.33;;
50689;SDS011;71367;48.298;11.238;2024-03-23T09:21:53;5.55;;;3.03;;
50689;SDS011;71367;48.298;11.238;2024-03-23T09:36:56;6.25;;;3.08;;
50689;SDS011;71367;48.298;11.238;2024-03-23T09:51:59;2.67;;;1.38;;
50689;SDS011;71367;48.298;11.238;2024-03-23T10:07:08;7.15;;;3.80;;
50689;SDS011;71367;48.298;11.238;2024-03-23T10:37:17;3.25;;;1.92;;
50689;SDS011;71367;48.298;11.238;2024-03-23T10:52:21;3.40;;;1.30;;
50689;SDS011;71367;48.298;11.238;2024-03-23T11:07:31;2.65;;;1.77;;
50689;SDS011;71367;48.298;11.238;2024-03-23T11:22:39;11.95;;;4.38;;
50689;SDS011;71367;48.298;11.238;2024-03-23T11:37:44;3.50;;;1.80;;
50689;SDS011;71367;48.298;11.238;2024-03-23T11:52:47;3.60;;;1.80;;
50689;SDS011;71367;48.298;11.238;2024-03-23T12:07:50;8.13;;;2.70;;
50689;SDS011;71367;48.298;11.238;2024-03-23T12:22:55;4.88;;;2.28;;
50689;SDS011;71367;48.298;11.238;2024-03-23T12:38:08;10.77;;;2.75;;
50689;SDS011;71367;48.298;11.238;2024-03-23T12:53:11;7.63;;;3.03;;
50689;SDS011;71367;48.298;11.238;2024-03-23T13:08:14;5.05;;;2.60;;
50689;SDS011;71367;48.298;11.238;2024-03-23T13:23:17;9.20;;;3.03;;
50689;SDS011;71367;48.298;11.238;2024-03-23T13:38:20;8.13;;;3.70;;
50689;SDS011;71367;48.298;11.238;2024-03-23T13:53:23;6.50;;;1.92;;
50689;SDS011;71367;48.298;11.238;2024-03-23T14:08:27;6.13;;;2.00;;
50689;SDS011;71367;48.298;11.238;2024-03-23T14:23:30;5.05;;;1.98;;
50689;SDS011;71367;48.298;11.238;2024-03-23T14:38:35;7.05;;;1.70;;
50689;SDS011;71367;48.298;11.238;2024-03-23T14:53:40;7.28;;;1.98;;
50689;SDS011;71367;48.298;11.238;2024-03-23T15:08:47;3.47;;;1.73;;
50689;SDS011;71367;48.298;11.238;2024-03-23T15:23:50;7.07;;;2.30;;
50689;SDS011;71367;48.298;11.238;2024-03-23T15:38:53;6.90;;;2.35;;
50689;SDS011;71367;48.298;11.238;2024-03-23T15:53:57;8.77;;;2.10;;
50689;SDS011;71367;48.298;11.238;2024-03-23T16:09:00;5.15;;;1.80;;
50689;SDS011;71367;48.298;11.238;2024-03-23T16:24:04;6.78;;;2.10;;
50689;SDS011;71367;48.298;11.238;2024-03-23T16:39:09;3.53;;;1.73;;
50689;SDS011;71367;48.298;11.238;2024-03-23T16:54:12;5.95;;;1.73;;
50689;SDS011;71367;48.298;11.238;2024-03-23T17:09:15;5.97;;;1.90;;
50689;SDS011;71367;48.298;11.238;2024-03-23T17:24:18;5.65;;;2.03;;
50689;SDS011;71367;48.298;11.238;2024-03-23T17:39:22;4.70;;;1.13;;
50689;SDS011;71367;48.298;11.238;2024-03-23T17:54:25;5.35;;;1.13;;
50689;SDS011;71367;48.298;11.238;2024-03-23T18:09:31;5.22;;;1.70;;
50689;SDS011;71367;48.298;11.238;2024-03-23T18:24:34;7.38;;;2.47;;
50689;SDS011;71367;48.298;11.238;2024-03-23T18:39:37;3.22;;;1.60;;
50689;SDS011;71367;48.298;11.238;2024-03-23T18:54:42;6.45;;;2.75;;
50689;SDS011;71367;48.298;11.238;2024-03-23T19:09:45;3.92;;;1.30;;
50689;SDS011;71367;48.298;11.238;2024-03-23T19:24:48;2.67;;;1.42;;
50689;SDS011;71367;48.298;11.238;2024-03-23T19:39:51;3.13;;;1.15;;
50689;SDS011;71367;48.298;11.238;2024-03-23T19:54:54;3.15;;;1.08;;
50689;SDS011;71367;48.298;11.238;2024-03-23T20:09:58;2.45;;;1.30;;
50689;SDS011;71367;48.298;11.238;2024-03-23T20:25:01;4.40;;;1.30;;
50689;SDS011;71367;48.298;11.238;2024-03-23T20:40:04;1.48;;;0.98;;
50689;SDS011;71367;48.298;11.238;2024-03-23T20:55:10;2.75;;;1.20;;
50689;SDS011;71367;48.298;11.238;2024-03-23T21:10:14;1.83;;;0.98;;
50689;SDS011;71367;48.298;11.238;2024-03-23T21:25:17;2.63;;;1.25;;
50689;SDS011;71367;48.298;11.238;2024-03-23T21:40:20;2.50;;;1.30;;
50689;SDS011;71367;48.298;11.238;2024-03-23T21:55:23;2.78;;;1.17;;
50689;SDS011;71367;48.298;11.238;2024-03-23T22:10:27;1.75;;;0.93;;
50689;SDS011;71367;48.298;11.238;2024-03-23T22:25:30;3.05;;;1.10;;
50689;SDS011;71367;48.298;11.238;2024-03-23T22:40:33;1.92;;;0.90;;
50689;SDS011;71367;48.298;11.238;2024-03-23T22:55:36;1.77;;;0.90;;
50689;SDS011;71367;48.298;11.238;2024-03-23T23:10:44;3.17;;;1.60;;
50689;SDS011;71367;48.298;11.238;2024-03-23T23:25:48;2.75;;;1.38;;
50689;SDS011;71367;48.298;11.238;2024-03-23T23:40:51;3.28;;;1.20;;
50689;SDS011;71367;48.298;11.238;2024-03-23T23:55:54;4.30;;;1.80;;
